Time;durP1;ratioP1;P1;durP2;ratioP2;P2;SDS_P1;SDS_P2;PMS_P1;PMS_P2;Temp;Humidity;BMP_temperature;BMP_pressure;BME280_temperature;BME280_humidity;BME280_pressure;Samples;Min_cycle;Max_cycle;Signal;HPM_P1;HPM_P2
2023/01/08 00:01:03;;;;;;;;;;;;;;;;;;5078947;28;19947;-78
2023/01/08 00:03:35;;;;;;;;;;;;;;;;;;5079676;28;19928;-80
2023/01/08 00:06:08;;;;;;;;;;;;;;;;;;5079897;28;19935;-80
2023/01/08 00:08:35;;;;;;;;;;;;;;;;;;5077345;28;19928;-80
2023/01/08 00:11:03;;;;;;;;;;;;;;;;;;5078249;28;20377;-79
2023/01/08 00:13:30;;;;;;;;;;;;;;;;;;5080142;28;20383;-80
2023/01/08 00:16:03;;;;;;;;;;;;;;;;;;5082138;28;19924;-81
2023/01/08 00:18:30;;;;;;;;;;;;;;;;;;5081168;28;19950;-81
2023/01/08 00:21:03;;;;;;;;;;;;;;;;;;5082205;28;19928;-81
2023/01/08 00:23:30;;;;;;;;;;;;;;;;;;5080345;28;20006;-80
2023/01/08 00:26:03;;;;;;;;;;;;;;;;;;5077097;28;19928;-80
2023/01/08 00:28:33;;;;;;;;;;;;;;;;;;5080451;28;19932;-80
2023/01/08 00:31:00;;;;;;;;;;;;;;;;;;5083789;28;19943;-80
2023/01/08 00:33:33;;;;;;;;;;;;;;;;;;5081242;28;19935;-81
2023/01/08 00:36:00;;;;;;;;;;;;;;;;;;5081026;28;19936;-80
2023/01/08 00:38:33;;;;;;;;;;;;;;;;;;5080455;28;19932;-80
2023/01/08 00:41:05;;;;;;;;;;;;;;;;;;5094676;28;19947;-80
2023/01/08 00:43:38;;;;;;;;;;;;;;;;;;5077871;28;19928;-80
2023/01/08 00:46:05;;;;;;;;;;;;;;;;;;5078759;28;21476;-80
2023/01/08 00:48:36;;;;;;;;;;;;;;;;;;5079861;28;20300;-80
2023/01/08 00:51:08;;;;;;;;;;;;;;;;;;5080317;28;19928;-80
2023/01/08 00:53:36;;;;;;;;;;;;;;;;;;5079796;28;19928;-80
2023/01/08 00:56:09;;;;;;;;;;;;;;;;;;5080038;28;19947;-80
2023/01/08 00:58:36;;;;;;;;;;;;;;;;;;5078736;28;19924;-80
2023/01/08 01:01:09;;;;;;;;;;;;;;;;;;5082753;28;19935;-81
2023/01/08 01:03:41;;;;;;;;;;;;;;;;;;5086526;28;19924;-80
2023/01/08 01:06:14;;;;;;;;;;;;;;;;;;5083130;28;19942;-80
2023/01/08 01:08:43;;;;;;;;;;;;;;;;;;5087901;28;19924;-80
2023/01/08 01:11:15;;;;;;;;;;;;;;;;;;5081905;28;20652;-80
2023/01/08 01:13:43;;;;;;;;;;;;;;;;;;5087533;28;19951;-80
2023/01/08 01:16:10;;;;;;;;;;;;;;;;;;5083877;28;19928;-81
2023/01/08 01:18:43;;;;;;;;;;;;;;;;;;5082334;28;19924;-80
2023/01/08 01:21:10;;;;;;;;;;;;;;;;;;5080970;28;20657;-80
2023/01/08 01:23:42;;;;;;;;;;;;;;;;;;5083656;28;19928;-81
2023/01/08 01:26:15;;;;;;;;;;;;;;;;;;5086187;28;19935;-81
2023/01/08 01:28:43;;;;;;;;;;;;;;;;;;5081213;28;19928;-80
2023/01/08 01:31:15;;;;;;;;;;;;;;;;;;5081742;28;19928;-80
2023/01/08 01:33:48;;;;;;;;;;;;;;;;;;5086166;28;19928;-80
2023/01/08 01:36:22;;;;;;;;;;;;;;;;;;5087582;28;19932;-80
2023/01/08 01:38:49;;;;;;;;;;;;;;;;;;5080882;28;19932;-80
2023/01/08 01:41:17;;;;;;;;;;;;;;;;;;5083434;28;19932;-81
2023/01/08 01:43:50;;;;;;;;;;;;;;;;;;5086151;28;19932;-80
2023/01/08 01:46:22;;;;;;;;;;;;;;;;;;5080751;28;19950;-80
2023/01/08 01:48:50;;;;;;;;;;;;;;;;;;5083474;28;20407;-80
2023/01/08 01:51:22;;;;;;;;;;;;;;;;;;5083761;28;20311;-81
2023/01/08 01:53:55;;;;;;;;;;;;;;;;;;5082530;28;20372;-80
2023/01/08 01:56:22;;;;;;;;;;;;;;;;;;5080371;28;20707;-80
2023/01/08 01:58:50;;;;;;;;;;;;;;;;;;5084246;28;20272;-80
2023/01/08 02:01:22;;;;;;;;;;;;;;;;;;5083422;28;19932;-81
2023/01/08 02:03:55;;;;;;;;;;;;;;;;;;5083416;28;19943;-80
2023/01/08 02:06:27;;;;;;;;;;;;;;;;;;5081471;28;19951;-80
2023/01/08 02:09:00;;;;;;;;;;;;;;;;;;5085237;28;19931;-80
2023/01/08 02:11:32;;;;;;;;;;;;;;;;;;5082482;28;19935;-80
2023/01/08 02:14:00;;;;;;;;;;;;;;;;;;5082888;28;19943;-80
2023/01/08 02:16:32;;;;;;;;;;;;;;;;;;5082536;28;20392;-80
2023/01/08 02:19:05;;;;;;;;;;;;;;;;;;5084488;28;19924;-81
2023/01/08 02:21:32;;;;;;;;;;;;;;;;;;5083225;28;19928;-80
2023/01/08 02:24:05;;;;;;;;;;;;;;;;;;5078755;28;19925;-80
2023/01/08 02:26:37;;;;;;;;;;;;;;;;;;5083138;28;20427;-81
2023/01/08 02:29:10;;;;;;;;;;;;;;;;;;5083068;28;19931;-80
2023/01/08 02:31:37;;;;;;;;;;;;;;;;;;5083106;28;19936;-80
2023/01/08 02:34:10;;;;;;;;;;;;;;;;;;5098081;28;19931;-80
2023/01/08 02:36:42;;;;;;;;;;;;;;;;;;5082271;28;19939;-80
2023/01/08 02:39:15;;;;;;;;;;;;;;;;;;5081551;28;19932;-80
2023/01/08 02:41:47;;;;;;;;;;;;;;;;;;5079936;28;19925;-80
2023/01/08 02:44:15;;;;;;;;;;;;;;;;;;5085050;28;19931;-80
2023/01/08 02:46:42;;;;;;;;;;;;;;;;;;5079813;28;19929;-80
2023/01/08 02:49:15;;;;;;;;;;;;;;;;;;5079339;28;19932;-80
2023/01/08 02:51:42;;;;;;;;;;;;;;;;;;5081815;28;19924;-80
2023/01/08 02:54:10;;;;;;;;;;;;;;;;;;5079417;28;19928;-80
2023/01/08 02:56:42;;;;;;;;;;;;;;;;;;5080283;28;19924;-81
2023/01/08 02:59:10;;;;;;;;;;;;;;;;;;5080384;28;20300;-80
2023/01/08 03:01:42;;;;;;;;;;;;;;;;;;5080140;28;19924;-80
2023/01/08 03:04:10;;;;;;;;;;;;;;;;;;5080947;28;19931;-80
2023/01/08 03:06:42;;;;;;;;;;;;;;;;;;5084178;28;20011;-80
2023/01/08 03:09:15;;;;;;;;;;;;;;;;;;5086155;28;19924;-81
2023/01/08 03:11:42;;;;;;;;;;;;;;;;;;5084371;28;19928;-80
2023/01/08 03:14:10;;;;;;;;;;;;;;;;;;5082908;28;19924;-80
2023/01/08 03:16:42;;;;;;;;;;;;;;;;;;5089311;28;19928;-80
2023/01/08 03:19:09;;;;;;;;;;;;;;;;;;5082515;28;19924;-81
2023/01/08 03:21:37;;;;;;;;;;;;;;;;;;5081592;28;19931;-80
2023/01/08 03:24:04;;;;;;;;;;;;;;;;;;5083921;28;20455;-81
2023/01/08 03:26:37;;;;;;;;;;;;;;;;;;5088034;28;19928;-80
2023/01/08 03:29:10;;;;;;;;;;;;;;;;;;5087154;28;20284;-81
2023/01/08 03:31:42;;;;;;;;;;;;;;;;;;5084672;28;19928;-80
2023/01/08 03:34:10;;;;;;;;;;;;;;;;;;5083842;28;20407;-80
2023/01/08 03:36:42;;;;;;;;;;;;;;;;;;5078458;28;19958;-80
2023/01/08 03:39:10;;;;;;;;;;;;;;;;;;5083379;28;19928;-80
2023/01/08 03:41:42;;;;;;;;;;;;;;;;;;5087611;28;19931;-81
2023/01/08 03:44:15;;;;;;;;;;;;;;;;;;5095914;28;19951;-80
2023/01/08 03:46:42;;;;;;;;;;;;;;;;;;5082332;28;19932;-80
2023/01/08 03:49:15;;;;;;;;;;;;;;;;;;5080693;28;20384;-81
2023/01/08 03:51:42;;;;;;;;;;;;;;;;;;5080936;28;19928;-80
2023/01/08 03:54:10;;;;;;;;;;;;;;;;;;5080698;28;19925;-80
2023/01/08 03:56:42;;;;;;;;;;;;;;;;;;5081953;28;19928;-80
2023/01/08 03:59:15;;;;;;;;;;;;;;;;;;5081532;28;19932;-80
2023/01/08 04:01:42;;;;;;;;;;;;;;;;;;5081170;28;19929;-81
2023/01/08 04:04:10;;;;;;;;;;;;;;;;;;5094824;28;19924;-80
2023/01/08 04:06:37;;;;;;;;;;;;;;;;;;5079219;28;19935;-80
2023/01/08 04:09:10;;;;;;;;;;;;;;;;;;5079069;28;19928;-80
2023/01/08 04:11:42;;;;;;;;;;;;;;;;;;5080848;28;19928;-81
2023/01/08 04:14:15;;;;;;;;;;;;;;;;;;5079751;28;19925;-80
2023/01/08 04:16:47;;;;;;;;;;;;;;;;;;5079691;28;19928;-80
2023/01/08 04:19:15;;;;;;;;;;;;;;;;;;5079603;28;19925;-81
2023/01/08 04:21:47;;;;;;;;;;;;;;;;;;5083299;28;19932;-80
2023/01/08 04:24:20;;;;;;;;;;;;;;;;;;5080614;28;19940;-81
2023/01/08 04:26:52;;;;;;;;;;;;;;;;;;5080611;28;19928;-81
2023/01/08 04:29:25;;;;;;;;;;;;;;;;;;5084819;28;19924;-80
2023/01/08 04:31:57;;;;;;;;;;;;;;;;;;5081238;28;19928;-81
2023/01/08 04:34:30;;;;;;;;;;;;;;;;;;5081607;28;19935;-80
2023/01/08 04:36:57;;;;;;;;;;;;;;;;;;5075639;28;19935;-81
2023/01/08 04:39:30;;;;;;;;;;;;;;;;;;5086655;28;19928;-81
2023/01/08 04:42:02;;;;;;;;;;;;;;;;;;5084921;28;19924;-80
2023/01/08 04:44:30;;;;;;;;;;;;;;;;;;5092513;28;19931;-81
2023/01/08 04:47:02;;;;;;;;;;;;;;;;;;5086937;28;19936;-80
2023/01/08 04:49:30;;;;;;;;;;;;;;;;;;5082459;28;19924;-81
2023/01/08 04:52:02;;;;;;;;;;;;;;;;;;5087999;28;19928;-80
2023/01/08 04:54:35;;;;;;;;;;;;;;;;;;5087190;28;19935;-80
2023/01/08 04:57:07;;;;;;;;;;;;;;;;;;5084451;28;19931;-80
2023/01/08 04:59:40;;;;;;;;;;;;;;;;;;5084734;28;20285;-80
2023/01/08 05:02:07;;;;;;;;;;;;;;;;;;5084385;28;19935;-80
2023/01/08 05:04:35;;;;;;;;;;;;;;;;;;5089869;28;19935;-80
2023/01/08 05:07:07;;;;;;;;;;;;;;;;;;5083516;28;20385;-80
2023/01/08 05:09:40;;;;;;;;;;;;;;;;;;5090136;28;20316;-80
2023/01/08 05:12:12;;;;;;;;;;;;;;;;;;5084064;28;19935;-80
2023/01/08 05:14:45;;;;;;;;;;;;;;;;;;5085061;28;20304;-80
2023/01/08 05:17:17;;;;;;;;;;;;;;;;;;5081827;28;19924;-81
2023/01/08 05:19:50;;;;;;;;;;;;;;;;;;5090824;28;19946;-80
2023/01/08 05:22:22;;;;;;;;;;;;;;;;;;5091663;28;19931;-80
2023/01/08 05:24:54;;;;;;;;;;;;;;;;;;5084458;28;20887;-80
2023/01/08 05:27:22;;;;;;;;;;;;;;;;;;5084907;28;20277;-80
2023/01/08 05:29:54;;;;;;;;;;;;;;;;;;5084443;28;19937;-81
2023/01/08 05:32:27;;;;;;;;;;;;;;;;;;5098596;28;20292;-80
2023/01/08 05:35:00;;;;;;;;;;;;;;;;;;5086953;28;19928;-80
2023/01/08 05:37:27;;;;;;;;;;;;;;;;;;5078324;28;20466;-80
2023/01/08 05:40:00;;;;;;;;;;;;;;;;;;5088733;28;19935;-80
2023/01/08 05:42:32;;;;;;;;;;;;;;;;;;5084289;28;20375;-80
2023/01/08 05:45:05;;;;;;;;;;;;;;;;;;5084278;28;19924;-81
2023/01/08 05:47:37;;;;;;;;;;;;;;;;;;5082216;28;19924;-81
2023/01/08 05:50:10;;;;;;;;;;;;;;;;;;5079538;28;20385;-80
2023/01/08 05:52:42;;;;;;;;;;;;;;;;;;5080634;28;19928;-80
2023/01/08 05:55:10;;;;;;;;;;;;;;;;;;5082065;28;19932;-80
2023/01/08 05:57:42;;;;;;;;;;;;;;;;;;5081522;28;19928;-80
2023/01/08 06:00:15;;;;;;;;;;;;;;;;;;5089628;28;19947;-80
2023/01/08 06:02:42;;;;;;;;;;;;;;;;;;5077737;28;19935;-81
2023/01/08 06:05:15;;;;;;;;;;;;;;;;;;5078546;28;19928;-80
2023/01/08 06:07:47;;;;;;;;;;;;;;;;;;5089588;28;19935;-81
2023/01/08 06:10:20;;;;;;;;;;;;;;;;;;5083073;28;20376;-80
2023/01/08 06:12:52;;;;;;;;;;;;;;;;;;5078021;28;20300;-80
2023/01/08 06:15:25;;;;;;;;;;;;;;;;;;5078808;28;19924;-81
2023/01/08 06:17:52;;;;;;;;;;;;;;;;;;5080984;28;20399;-80
2023/01/08 06:20:20;;;;;;;;;;;;;;;;;;5081465;28;19932;-80
2023/01/08 06:22:52;;;;;;;;;;;;;;;;;;5080761;28;19932;-80
2023/01/08 06:25:25;;;;;;;;;;;;;;;;;;5083442;28;19928;-80
2023/01/08 06:27:57;;;;;;;;;;;;;;;;;;5091831;28;19924;-81
2023/01/08 06:30:30;;;;;;;;;;;;;;;;;;5080765;28;19943;-80
2023/01/08 06:33:02;;;;;;;;;;;;;;;;;;5081646;28;19929;-80
2023/01/08 06:35:35;;;;;;;;;;;;;;;;;;5080489;28;20380;-80
2023/01/08 06:38:02;;;;;;;;;;;;;;;;;;5078131;28;19924;-81
2023/01/08 06:40:29;;;;;;;;;;;;;;;;;;5081975;28;19943;-80
2023/01/08 06:43:02;;;;;;;;;;;;;;;;;;5078847;28;19928;-81
2023/01/08 06:45:30;;;;;;;;;;;;;;;;;;5079455;28;19928;-81
2023/01/08 06:48:02;;;;;;;;;;;;;;;;;;5079744;28;19935;-81
2023/01/08 06:50:35;;;;;;;;;;;;;;;;;;5081303;28;19935;-80
2023/01/08 06:53:07;;;;;;;;;;;;;;;;;;5079670;28;19929;-81
2023/01/08 06:55:39;;;;;;;;;;;;;;;;;;5086511;28;19928;-80
2023/01/08 06:58:12;;;;;;;;;;;;;;;;;;5083440;28;19928;-81
2023/01/08 07:00:39;;;;;;;;;;;;;;;;;;5079519;28;19931;-80
2023/01/08 07:03:12;;;;;;;;;;;;;;;;;;5082886;28;19924;-80
2023/01/08 07:05:40;;;;;;;;;;;;;;;;;;5075238;28;19925;-80
2023/01/08 07:08:12;;;;;;;;;;;;;;;;;;5081033;28;19928;-80
2023/01/08 07:10:45;;;;;;;;;;;;;;;;;;5080593;28;19947;-80
2023/01/08 07:13:17;;;;;;;;;;;;;;;;;;5081082;28;19925;-80
2023/01/08 07:15:50;;;;;;;;;;;;;;;;;;5077849;28;19931;-80
2023/01/08 07:18:22;;;;;;;;;;;;;;;;;;5087834;28;19932;-81
2023/01/08 07:20:54;;;;;;;;;;;;;;;;;;5094150;28;19924;-81
2023/01/08 07:23:22;;;;;;;;;;;;;;;;;;5086594;28;20376;-80
2023/01/08 07:25:54;;;;;;;;;;;;;;;;;;5082114;28;19924;-81
2023/01/08 07:28:27;;;;;;;;;;;;;;;;;;5078102;28;19924;-81
2023/01/08 07:30:59;;;;;;;;;;;;;;;;;;5081218;28;19924;-80
2023/01/08 07:33:27;;;;;;;;;;;;;;;;;;5082817;28;19928;-81
2023/01/08 07:35:59;;;;;;;;;;;;;;;;;;5084317;28;19929;-80
2023/01/08 07:38:27;;;;;;;;;;;;;;;;;;5085505;28;19924;-80
2023/01/08 07:40:59;;;;;;;;;;;;;;;;;;5079986;28;19935;-80
2023/01/08 07:43:29;;;;;;;;;;;;;;;;;;5083977;28;20224;-80
2023/01/08 07:46:02;;;;;;;;;;;;;;;;;;5078204;28;19935;-80
2023/01/08 07:48:34;;;;;;;;;;;;;;;;;;5081796;28;19924;-81
2023/01/08 07:51:02;;;;;;;;;;;;;;;;;;5081076;28;19928;-80
2023/01/08 07:53:34;;;;;;;;;;;;;;;;;;5081512;28;19935;-80
2023/01/08 07:56:07;;;;;;;;;;;;;;;;;;5079736;28;19928;-80
2023/01/08 07:58:34;;;;;;;;;;;;;;;;;;5080459;28;19928;-80
2023/01/08 08:01:02;;;;;;;;;;;;;;;;;;5077615;28;19935;-80
2023/01/08 08:03:34;;;;;;;;;;;;;;;;;;5080325;28;19935;-80
2023/01/08 08:06:07;;;;;;;;;;;;;;;;;;5083034;28;19931;-80
2023/01/08 08:08:34;;;;;;;;;;;;;;;;;;5081888;28;19935;-80
2023/01/08 08:11:07;;;;;;;;;;;;;;;;;;5082487;28;19924;-80
2023/01/08 08:13:34;;;;;;;;;;;;;;;;;;5076362;28;19929;-80
2023/01/08 08:16:02;;;;;;;;;;;;;;;;;;5078146;28;19942;-81
2023/01/08 08:18:34;;;;;;;;;;;;;;;;;;5081072;28;19928;-81
2023/01/08 08:21:02;;;;;;;;;;;;;;;;;;5079582;28;19939;-80
2023/01/08 08:23:35;;;;;;;;;;;;;;;;;;5077172;28;19924;-80
2023/01/08 08:26:07;;;;;;;;;;;;;;;;;;5080890;28;19931;-80
2023/01/08 08:28:35;;;;;;;;;;;;;;;;;;5078688;28;19931;-80
2023/01/08 08:31:02;;;;;;;;;;;;;;;;;;5081096;28;20296;-80
2023/01/08 08:33:35;;;;;;;;;;;;;;;;;;5078855;28;19925;-80
2023/01/08 08:36:07;;;;;;;;;;;;;;;;;;5074862;28;19935;-81
2023/01/08 08:38:40;;;;;;;;;;;;;;;;;;5076815;28;19928;-80
2023/01/08 08:41:12;;;;;;;;;;;;;;;;;;5079830;28;19931;-81
2023/01/08 08:43:40;;;;;;;;;;;;;;;;;;5081072;28;19928;-81
2023/01/08 08:46:12;;;;;;;;;;;;;;;;;;5080889;28;19928;-80
2023/01/08 08:48:45;;;;;;;;;;;;;;;;;;5079751;28;19943;-81
2023/01/08 08:51:17;;;;;;;;;;;;;;;;;;5085859;28;19924;-81
2023/01/08 08:53:50;;;;;;;;;;;;;;;;;;5080322;28;19935;-80
2023/01/08 08:56:22;;;;;;;;;;;;;;;;;;5080393;28;19935;-80
2023/01/08 08:58:51;;;;;;;;;;;;;;;;;;5084229;28;19935;-80
2023/01/08 09:01:23;;;;;;;;;;;;;;;;;;5080691;28;19931;-81
2023/01/08 09:03:56;;;;;;;;;;;;;;;;;;5076917;28;19931;-81
2023/01/08 09:06:28;;;;;;;;;;;;;;;;;;5079974;28;19936;-80
2023/01/08 09:09:01;;;;;;;;;;;;;;;;;;5077912;28;20151;-80
2023/01/08 09:11:28;;;;;;;;;;;;;;;;;;5078633;28;19932;-81
2023/01/08 09:14:01;;;;;;;;;;;;;;;;;;5079418;28;20303;-80
2023/01/08 09:16:35;;;;;;;;;;;;;;;;;;5081760;28;19928;-79
2023/01/08 09:19:03;;;;;;;;;;;;;;;;;;5077849;28;19924;-81
2023/01/08 09:21:30;;;;;;;;;;;;;;;;;;5081465;28;19928;-80
2023/01/08 09:23:58;;;;;;;;;;;;;;;;;;5088656;28;20322;-80
2023/01/08 09:26:30;;;;;;;;;;;;;;;;;;5087508;28;19932;-79
2023/01/08 09:28:58;;;;;;;;;;;;;;;;;;5081358;28;19939;-81
2023/01/08 09:31:30;;;;;;;;;;;;;;;;;;5090518;28;19928;-80
2023/01/08 09:33:58;;;;;;;;;;;;;;;;;;5078452;28;19939;-80
2023/01/08 09:36:25;;;;;;;;;;;;;;;;;;5082947;28;19935;-80
2023/01/08 09:38:53;;;;;;;;;;;;;;;;;;5084203;28;19939;-80
2023/01/08 09:41:25;;;;;;;;;;;;;;;;;;5082498;28;19935;-80
2023/01/08 09:43:53;;;;;;;;;;;;;;;;;;5077113;28;20381;-80
2023/01/08 09:46:25;;;;;;;;;;;;;;;;;;5087753;28;19928;-80
2023/01/08 09:48:58;;;;;;;;;;;;;;;;;;5078607;28;19932;-80
2023/01/08 09:51:25;;;;;;;;;;;;;;;;;;5079308;28;19928;-80
2023/01/08 09:53:53;;;;;;;;;;;;;;;;;;5081570;28;19932;-80
2023/01/08 09:56:20;;;;;;;;;;;;;;;;;;5084228;28;19929;-80
2023/01/08 09:58:49;;;;;;;;;;;;;;;;;;5080700;28;19928;-82
2023/01/08 10:01:21;;;;;;;;;;;;;;;;;;5063957;28;20423;-80
2023/01/08 10:03:49;;;;;;;;;;;;;;;;;;5083137;28;19925;-83
2023/01/08 10:06:16;;;;;;;;;;;;;;;;;;5083760;28;19935;-80
2023/01/08 10:08:49;;;;;;;;;;;;;;;;;;5083017;28;19936;-81
2023/01/08 10:11:16;;;;;;;;;;;;;;;;;;5084761;28;20359;-82
2023/01/08 10:13:49;;;;;;;;;;;;;;;;;;5082708;28;19924;-82
2023/01/08 10:16:16;;;;;;;;;;;;;;;;;;5077905;28;19943;-80
2023/01/08 10:18:44;;;;;;;;;;;;;;;;;;5078628;28;19928;-81
2023/01/08 10:21:11;;;;;;;;;;;;;;;;;;5080879;28;20884;-81
2023/01/08 10:23:44;;;;;;;;;;;;;;;;;;5085047;28;20505;-81
2023/01/08 10:26:16;;;;;;;;;;;;;;;;;;5086197;28;19925;-81
2023/01/08 10:28:44;;;;;;;;;;;;;;;;;;5082632;28;20384;-81
2023/01/08 10:31:11;;;;;;;;;;;;;;;;;;5080084;28;19939;-84
2023/01/08 10:33:44;;;;;;;;;;;;;;;;;;5083772;28;20292;-81
2023/01/08 10:36:11;;;;;;;;;;;;;;;;;;5086701;28;19935;-82
2023/01/08 10:38:39;;;;;;;;;;;;;;;;;;5079837;28;19932;-82
2023/01/08 10:41:07;;;;;;;;;;;;;;;;;;5081825;28;20002;-82
2023/01/08 10:43:34;;;;;;;;;;;;;;;;;;5091543;28;19928;-82
2023/01/08 10:46:07;;;;;;;;;;;;;;;;;;5074212;28;19932;-81
2023/01/08 10:48:39;;;;;;;;;;;;;;;;;;5081928;28;20281;-84
2023/01/08 10:51:12;;;;;;;;;;;;;;;;;;5077045;28;20806;-82
2023/01/08 10:53:44;;;;;;;;;;;;;;;;;;5077014;28;19939;-81
2023/01/08 10:56:17;;;;;;;;;;;;;;;;;;5078529;28;19935;-81
2023/01/08 10:58:49;;;;;;;;;;;;;;;;;;5081964;28;19924;-82
2023/01/08 11:01:17;;;;;;;;;;;;;;;;;;5080363;28;19939;-81
2023/01/08 11:03:49;;;;;;;;;;;;;;;;;;5087043;28;20003;-82
2023/01/08 11:06:22;;;;;;;;;;;;;;;;;;5085565;28;19940;-82
2023/01/08 11:08:54;;;;;;;;;;;;;;;;;;5082474;28;20273;-83
2023/01/08 11:11:22;;;;;;;;;;;;;;;;;;5081236;28;19935;-83
2023/01/08 11:13:54;;;;;;;;;;;;;;;;;;5075748;28;19925;-85
2023/01/08 11:16:22;;;;;;;;;;;;;;;;;;5082976;28;19932;-85
2023/01/08 11:18:55;;;;;;;;;;;;;;;;;;5079510;28;19932;-83
2023/01/08 11:21:29;;;;;;;;;;;;;;;;;;5087057;28;19932;-83
2023/01/08 11:24:02;;;;;;;;;;;;;;;;;;5093845;28;19932;-82
2023/01/08 11:26:29;;;;;;;;;;;;;;;;;;5082697;28;19935;-83
2023/01/08 11:29:02;;;;;;;;;;;;;;;;;;5081003;28;19931;-83
2023/01/08 11:31:29;;;;;;;;;;;;;;;;;;5095955;28;19924;-82
2023/01/08 11:33:57;;;;;;;;;;;;;;;;;;5079803;28;19932;-82
2023/01/08 11:36:24;;;;;;;;;;;;;;;;;;5083399;28;19932;-82
2023/01/08 11:38:52;;;;;;;;;;;;;;;;;;5084060;28;19936;-84
2023/01/08 11:41:19;;;;;;;;;;;;;;;;;;5076669;28;19925;-84
2023/01/08 11:43:52;;;;;;;;;;;;;;;;;;5081609;28;19928;-83
2023/01/08 11:46:24;;;;;;;;;;;;;;;;;;5078208;28;20361;-85
2023/01/08 11:48:52;;;;;;;;;;;;;;;;;;5077538;28;19929;-83
2023/01/08 11:51:19;;;;;;;;;;;;;;;;;;5078512;28;19928;-83
2023/01/08 11:53:52;;;;;;;;;;;;;;;;;;5078633;28;19935;-83
2023/01/08 11:56:19;;;;;;;;;;;;;;;;;;5089992;28;19924;-83
2023/01/08 11:58:51;;;;;;;;;;;;;;;;;;5084443;28;19928;-83
2023/01/08 12:01:24;;;;;;;;;;;;;;;;;;5082728;28;19928;-83
2023/01/08 12:03:57;;;;;;;;;;;;;;;;;;5079226;28;19925;-83
2023/01/08 12:06:26;;;;;;;;;;;;;;;;;;5087612;28;20304;-82
2023/01/08 12:08:54;;;;;;;;;;;;;;;;;;5079110;28;20380;-83
2023/01/08 12:11:21;;;;;;;;;;;;;;;;;;5084785;28;19929;-83
2023/01/08 12:13:54;;;;;;;;;;;;;;;;;;5081633;28;19928;-85
2023/01/08 12:16:26;;;;;;;;;;;;;;;;;;5083683;28;19962;-82
2023/01/08 12:18:54;;;;;;;;;;;;;;;;;;5075392;28;19928;-84
2023/01/08 12:21:26;;;;;;;;;;;;;;;;;;5082365;28;19924;-83
2023/01/08 12:23:59;;;;;;;;;;;;;;;;;;5084085;28;20266;-82
2023/01/08 12:26:31;;;;;;;;;;;;;;;;;;5078292;28;19928;-82
2023/01/08 12:29:04;;;;;;;;;;;;;;;;;;5080361;28;19928;-81
2023/01/08 12:31:36;;;;;;;;;;;;;;;;;;5082508;28;19928;-81
2023/01/08 12:34:09;;;;;;;;;;;;;;;;;;5083230;28;20373;-81
2023/01/08 12:36:41;;;;;;;;;;;;;;;;;;5086217;28;20400;-82
2023/01/08 12:39:09;;;;;;;;;;;;;;;;;;5085785;28;19924;-82
2023/01/08 12:41:41;;;;;;;;;;;;;;;;;;5084664;28;19936;-81
2023/01/08 12:44:14;;;;;;;;;;;;;;;;;;5080702;28;19939;-82
2023/01/08 12:46:42;;;;;;;;;;;;;;;;;;5079281;28;19928;-83
2023/01/08 12:49:14;;;;;;;;;;;;;;;;;;5081074;28;19928;-82
2023/01/08 12:51:42;;;;;;;;;;;;;;;;;;5076873;28;19931;-82
2023/01/08 12:54:14;;;;;;;;;;;;;;;;;;5077242;28;19928;-82
2023/01/08 12:56:47;;;;;;;;;;;;;;;;;;5079076;28;19932;-82
2023/01/08 12:59:19;;;;;;;;;;;;;;;;;;5081846;28;20301;-81
2023/01/08 13:01:52;;;;;;;;;;;;;;;;;;5081447;28;20349;-82
2023/01/08 13:04:24;;;;;;;;;;;;;;;;;;5085283;28;19936;-82
2023/01/08 13:06:52;;;;;;;;;;;;;;;;;;5091142;28;19928;-82
2023/01/08 13:09:19;;;;;;;;;;;;;;;;;;5085763;28;19928;-82
2023/01/08 13:11:47;;;;;;;;;;;;;;;;;;5084210;28;19928;-82
2023/01/08 13:14:24;;;;;;;;;;;;;;;;;;5085439;28;20365;-83
2023/01/08 13:16:56;;;;;;;;;;;;;;;;;;5085659;28;19924;-82
2023/01/08 13:19:29;;;;;;;;;;;;;;;;;;5086284;28;20453;-82
2023/01/08 13:22:02;;;;;;;;;;;;;;;;;;5087105;28;19928;-82
2023/01/08 13:24:34;;;;;;;;;;;;;;;;;;5082875;28;19935;-82
2023/01/08 13:27:07;;;;;;;;;;;;;;;;;;5086887;28;19927;-82
2023/01/08 13:29:40;;;;;;;;;;;;;;;;;;5083942;28;19932;-82
2023/01/08 13:32:12;;;;;;;;;;;;;;;;;;5085200;28;19925;-81
2023/01/08 13:34:41;;;;;;;;;;;;;;;;;;5081702;28;19932;-82
2023/01/08 13:37:13;;;;;;;;;;;;;;;;;;5083688;28;19925;-80
2023/01/08 13:39:46;;;;;;;;;;;;;;;;;;5087064;28;19924;-82
2023/01/08 13:42:18;;;;;;;;;;;;;;;;;;5082209;28;19928;-82
2023/01/08 13:44:50;;;;;;;;;;;;;;;;;;5080604;28;19928;-84
2023/01/08 13:47:18;;;;;;;;;;;;;;;;;;5085570;28;19928;-82
2023/01/08 13:49:51;;;;;;;;;;;;;;;;;;5083322;28;19925;-85
2023/01/08 13:52:24;;;;;;;;;;;;;;;;;;5088022;28;19928;-83
2023/01/08 13:54:51;;;;;;;;;;;;;;;;;;5085121;28;20696;-83
2023/01/08 13:57:19;;;;;;;;;;;;;;;;;;5080820;28;19924;-81
2023/01/08 13:59:47;;;;;;;;;;;;;;;;;;5078156;28;20015;-81
2023/01/08 14:02:19;;;;;;;;;;;;;;;;;;5082818;28;19924;-83
2023/01/08 14:04:52;;;;;;;;;;;;;;;;;;5082566;28;19934;-81
2023/01/08 14:07:24;;;;;;;;;;;;;;;;;;5081042;28;19932;-83
2023/01/08 14:09:52;;;;;;;;;;;;;;;;;;5081171;28;19935;-82
2023/01/08 14:12:20;;;;;;;;;;;;;;;;;;5085386;28;20397;-82
2023/01/08 14:14:47;;;;;;;;;;;;;;;;;;5082010;28;19935;-81
2023/01/08 14:17:16;;;;;;;;;;;;;;;;;;5084238;28;19928;-81
2023/01/08 14:19:43;;;;;;;;;;;;;;;;;;5084628;28;19928;-81
2023/01/08 14:22:16;;;;;;;;;;;;;;;;;;5085490;28;19924;-81
2023/01/08 14:24:48;;;;;;;;;;;;;;;;;;5078862;28;19935;-81
2023/01/08 14:27:16;;;;;;;;;;;;;;;;;;5088867;28;19939;-85
2023/01/08 14:29:44;;;;;;;;;;;;;;;;;;5082691;28;19928;-83
2023/01/08 14:32:16;;;;;;;;;;;;;;;;;;5098714;28;20288;-83
2023/01/08 14:34:44;;;;;;;;;;;;;;;;;;5083626;28;20501;-84
2023/01/08 14:37:11;;;;;;;;;;;;;;;;;;5075452;28;19950;-85
2023/01/08 14:39:39;;;;;;;;;;;;;;;;;;5080754;28;19924;-85
2023/01/08 14:44:56;;;;;;;;;;;;;;;;;;5078301;28;19929;-85
2023/01/08 14:47:29;;;;;;;;;;;;;;;;;;5084134;28;20291;-84
2023/01/08 14:49:56;;;;;;;;;;;;;;;;;;5081645;28;19924;-84
2023/01/08 14:52:24;;;;;;;;;;;;;;;;;;5084424;28;20316;-84
2023/01/08 14:54:51;;;;;;;;;;;;;;;;;;5097911;28;19973;-85
2023/01/08 14:57:19;;;;;;;;;;;;;;;;;;5078403;28;19928;-83
2023/01/08 14:59:46;;;;;;;;;;;;;;;;;;5080508;28;19924;-83
2023/01/08 15:02:19;;;;;;;;;;;;;;;;;;5082798;28;19928;-83
2023/01/08 15:04:46;;;;;;;;;;;;;;;;;;5078932;28;19924;-83
2023/01/08 15:07:19;;;;;;;;;;;;;;;;;;5081012;28;19924;-82
2023/01/08 15:09:46;;;;;;;;;;;;;;;;;;5080227;28;19958;-84
2023/01/08 15:12:14;;;;;;;;;;;;;;;;;;5078936;28;19932;-81
2023/01/08 15:14:47;;;;;;;;;;;;;;;;;;5082303;28;19928;-82
2023/01/08 15:17:14;;;;;;;;;;;;;;;;;;5086047;28;19932;-82
2023/01/08 15:19:48;;;;;;;;;;;;;;;;;;5079997;28;19932;-83
2023/01/08 15:22:16;;;;;;;;;;;;;;;;;;5077466;28;19935;-80
2023/01/08 15:24:48;;;;;;;;;;;;;;;;;;5080769;28;19932;-81
2023/01/08 15:27:21;;;;;;;;;;;;;;;;;;5083723;28;19935;-80
2023/01/08 15:29:49;;;;;;;;;;;;;;;;;;5083319;28;19924;-82
2023/01/08 15:32:16;;;;;;;;;;;;;;;;;;5081653;28;19925;-80
2023/01/08 15:34:49;;;;;;;;;;;;;;;;;;5082815;28;19928;-82
2023/01/08 15:37:21;;;;;;;;;;;;;;;;;;5080940;28;19932;-87
2023/01/08 15:39:48;;;;;;;;;;;;;;;;;;5082371;28;19931;-86
2023/01/08 15:45:11;;;;;;;;;;;;;;;;;;5081725;28;19928;-84
2023/01/08 15:47:44;;;;;;;;;;;;;;;;;;5078562;28;20390;-86
2023/01/08 15:50:19;;;;;;;;;;;;;;;;;;5082031;28;20389;-85
2023/01/08 15:52:46;;;;;;;;;;;;;;;;;;5072831;28;19932;-82
2023/01/08 15:55:14;;;;;;;;;;;;;;;;;;5078398;28;19932;-83
2023/01/08 15:57:41;;;;;;;;;;;;;;;;;;5089198;28;19925;-81
2023/01/08 16:00:14;;;;;;;;;;;;;;;;;;5085936;28;19959;-83
2023/01/08 16:02:46;;;;;;;;;;;;;;;;;;5082675;28;19935;-82
2023/01/08 16:05:19;;;;;;;;;;;;;;;;;;5073676;28;19936;-82
2023/01/08 16:07:46;;;;;;;;;;;;;;;;;;5078934;28;19929;-83
2023/01/08 16:10:19;;;;;;;;;;;;;;;;;;5083361;28;20364;-83
2023/01/08 16:12:46;;;;;;;;;;;;;;;;;;5080879;28;20323;-83
2023/01/08 16:15:19;;;;;;;;;;;;;;;;;;5097801;28;20286;-84
2023/01/08 16:17:51;;;;;;;;;;;;;;;;;;5078889;28;20284;-83
2023/01/08 16:20:19;;;;;;;;;;;;;;;;;;5079900;28;19924;-84
2023/01/08 16:22:46;;;;;;;;;;;;;;;;;;5081841;28;19943;-86
2023/01/08 16:25:19;;;;;;;;;;;;;;;;;;5085014;28;20254;-84
2023/01/08 16:27:51;;;;;;;;;;;;;;;;;;5087277;28;19939;-84
2023/01/08 16:30:24;;;;;;;;;;;;;;;;;;5079549;28;19932;-84
2023/01/08 16:32:56;;;;;;;;;;;;;;;;;;5078710;28;19955;-81
2023/01/08 16:35:24;;;;;;;;;;;;;;;;;;5074289;28;20403;-84
2023/01/08 16:37:51;;;;;;;;;;;;;;;;;;5077145;28;19947;-81
2023/01/08 16:40:24;;;;;;;;;;;;;;;;;;5054728;28;19950;-83
2023/01/08 16:42:56;;;;;;;;;;;;;;;;;;5070734;28;19939;-83
2023/01/08 16:45:29;;;;;;;;;;;;;;;;;;5064110;28;19939;-83
2023/01/08 16:47:57;;;;;;;;;;;;;;;;;;5065485;28;19932;-81
2023/01/08 16:50:29;;;;;;;;;;;;;;;;;;5065498;28;19938;-83
2023/01/08 16:53:02;;;;;;;;;;;;;;;;;;5072408;28;19932;-84
2023/01/08 16:55:34;;;;;;;;;;;;;;;;;;5064473;28;19932;-83
2023/01/08 16:58:07;;;;;;;;;;;;;;;;;;5069622;28;19932;-82
2023/01/08 17:00:34;;;;;;;;;;;;;;;;;;5068923;28;19943;-80
2023/01/08 17:03:02;;;;;;;;;;;;;;;;;;5067463;28;19939;-82
2023/01/08 17:05:34;;;;;;;;;;;;;;;;;;5063584;28;19932;-80
2023/01/08 17:08:09;;;;;;;;;;;;;;;;;;5062287;28;20142;-82
2023/01/08 17:10:42;;;;;;;;;;;;;;;;;;5063549;28;19932;-82
2023/01/08 17:13:09;;;;;;;;;;;;;;;;;;5066648;28;19932;-82